createdAt,value
2018-04-02T00:00:13.343Z,91.90
2018-04-02T00:02:41.647Z,91.80
2018-04-02T00:05:09.980Z,91.90
2018-04-02T00:07:38.298Z,92.00
2018-04-02T00:10:06.814Z,91.60
2018-04-02T00:12:35.075Z,91.60
2018-04-02T00:15:03.443Z,91.80
2018-04-02T00:17:32.504Z,91.70
2018-04-02T00:20:01.561Z,91.70
2018-04-02T00:22:31.406Z,91.60
2018-04-02T00:24:59.751Z,91.60
2018-04-02T00:27:28.002Z,91.70
2018-04-02T00:29:58.019Z,91.70
2018-04-02T00:32:27.058Z,91.70
2018-04-02T00:34:55.409Z,91.70
2018-04-02T00:37:23.756Z,91.70
2018-04-02T00:39:53.687Z,91.70
2018-04-02T00:42:21.962Z,91.60
2018-04-02T00:44:50.382Z,91.40
2018-04-02T00:47:18.739Z,91.40
2018-04-02T00:49:47.028Z,91.40
2018-04-02T00:52:15.322Z,91.30
2018-04-02T00:54:43.582Z,91.20
2018-04-02T00:57:11.870Z,91.30
2018-04-02T00:59:40.906Z,90.90
2018-04-02T01:02:09.910Z,91.10
2018-04-02T01:04:39.009Z,91.10
2018-04-02T01:07:08.095Z,91.10
2018-04-02T01:09:37.920Z,91.10
2018-04-02T01:12:06.960Z,91.20
2018-04-02T01:14:35.266Z,91.20
2018-04-02T01:17:04.374Z,91.20
2018-04-02T01:19:34.322Z,91.20
2018-04-02T01:22:02.657Z,91.20
2018-04-02T01:24:31.690Z,91.30
2018-04-02T01:26:59.956Z,91.20
2018-04-02T01:29:29.002Z,91.30
2018-04-02T01:32:00.050Z,91.30
2018-04-02T01:34:28.274Z,91.30
2018-04-02T01:36:56.600Z,91.20
2018-04-02T01:39:24.978Z,91.10
2018-04-02T01:41:53.214Z,90.90
2018-04-02T01:44:21.494Z,91.00
2018-04-02T01:46:49.810Z,91.10
2018-04-02T01:49:19.664Z,91.00
2018-04-02T01:51:49.877Z,91.40
2018-04-02T01:54:18.901Z,91.00
2018-04-02T01:56:47.251Z,91.00
2018-04-02T01:59:16.275Z,90.90
2018-04-02T02:01:45.451Z,90.90
2018-04-02T02:04:13.762Z,91.00
2018-04-02T02:06:42.018Z,91.00
2018-04-02T02:09:10.884Z,91.20
2018-04-02T02:11:39.182Z,91.30
2018-04-02T02:14:07.483Z,91.40
2018-04-02T02:16:35.771Z,91.10
2018-04-02T02:19:05.556Z,90.80
2018-04-02T02:21:34.628Z,90.80
2018-04-02T02:24:02.948Z,90.90
2018-04-02T02:26:31.260Z,90.90
2018-04-02T02:29:00.406Z,90.80
2018-04-02T02:31:28.662Z,90.80
2018-04-02T02:33:56.984Z,90.80
2018-04-02T02:36:25.196Z,90.80
2018-04-02T02:38:54.775Z,90.80
2018-04-02T02:41:23.064Z,90.60
2018-04-02T02:43:53.308Z,90.70
2018-04-02T02:46:21.595Z,90.70
2018-04-02T02:48:49.952Z,90.70
2018-04-02T02:51:18.233Z,90.70
2018-04-02T02:53:46.505Z,90.60
2018-04-02T02:56:14.797Z,90.70
2018-04-02T02:58:43.598Z,90.60
2018-04-02T03:01:13.058Z,90.70
2018-04-02T03:03:41.344Z,90.80
2018-04-02T03:06:09.687Z,90.80
2018-04-02T03:08:38.839Z,91.00
2018-04-02T03:11:08.390Z,90.90
2018-04-02T03:13:36.676Z,90.90
2018-04-02T03:16:05.846Z,90.80
2018-04-02T03:18:34.126Z,91.10
2018-04-02T03:21:02.406Z,91.00
2018-04-02T03:23:30.672Z,91.10
2018-04-02T03:25:58.949Z,91.00
2018-04-02T03:28:27.241Z,90.90
2018-04-02T03:30:55.602Z,90.90
2018-04-02T03:33:23.841Z,90.90
2018-04-02T03:35:52.147Z,90.80
2018-04-02T03:38:20.421Z,90.80
2018-04-02T03:40:48.688Z,90.80
2018-04-02T03:43:16.945Z,90.80
2018-04-02T03:45:45.982Z,91.20
2018-04-02T03:48:14.253Z,91.20
2018-04-02T03:50:42.653Z,91.10
2018-04-02T03:53:10.958Z,90.80
2018-04-02T03:55:40.024Z,91.10
2018-04-02T03:58:08.362Z,91.10
2018-04-02T04:00:36.695Z,91.20
2018-04-02T04:03:05.769Z,91.10
2018-04-02T04:05:34.941Z,91.10
2018-04-02T04:08:03.228Z,91.10
2018-04-02T04:10:32.215Z,91.00
2018-04-02T04:13:01.336Z,91.20
2018-04-02T04:15:29.690Z,91.20
2018-04-02T04:17:59.320Z,91.00
2018-04-02T04:20:27.644Z,90.80
2018-04-02T04:22:55.909Z,90.70
2018-04-02T04:25:24.332Z,90.60
2018-04-02T04:27:53.868Z,90.70
2018-04-02T04:30:22.151Z,90.70
2018-04-02T04:32:51.278Z,90.50
2018-04-02T04:35:19.590Z,90.40
2018-04-02T04:37:47.936Z,90.40
2018-04-02T04:40:16.246Z,90.30
2018-04-02T04:42:44.611Z,90.20
2018-04-02T04:45:14.027Z,90.10
2018-04-02T04:47:43.560Z,90.30
2018-04-02T04:50:11.835Z,90.20
2018-04-02T04:52:41.293Z,90.30
2018-04-02T04:55:09.539Z,90.30
2018-04-02T04:57:37.804Z,90.10
2018-04-02T05:00:07.025Z,90.10
2018-04-02T05:02:35.330Z,90.10
2018-04-02T05:05:03.632Z,90.10
2018-04-02T05:07:31.884Z,90.00
2018-04-02T05:10:00.155Z,90.00
2018-04-02T05:12:28.428Z,90.20
2018-04-02T05:14:56.712Z,90.30
2018-04-02T05:17:24.975Z,90.00
2018-04-02T05:19:53.370Z,90.10
2018-04-02T05:22:22.840Z,89.80
2018-04-02T05:24:51.071Z,90.00
2018-04-02T05:27:20.110Z,89.50
2018-04-02T05:29:48.357Z,89.50
2018-04-02T05:32:17.389Z,90.20
2018-04-02T05:34:45.690Z,90.10
2018-04-02T05:37:13.955Z,89.90
2018-04-02T05:39:42.255Z,89.40
2018-04-02T05:42:10.480Z,89.30
2018-04-02T05:44:38.802Z,89.10
2018-04-02T05:47:07.051Z,89.30
2018-04-02T05:49:35.341Z,88.60
2018-04-02T05:52:04.387Z,89.40
2018-04-02T05:54:33.443Z,88.50
2018-04-02T05:57:02.530Z,88.20
2018-04-02T05:59:30.809Z,88.10
2018-04-02T06:01:59.081Z,87.50
2018-04-02T06:04:27.406Z,86.70
2018-04-02T06:06:56.437Z,85.70
2018-04-02T06:09:24.727Z,85.60
2018-04-02T06:11:53.005Z,84.20
2018-04-02T06:14:22.554Z,83.60
2018-04-02T06:16:52.737Z,82.60
2018-04-02T06:19:21.016Z,82.40
2018-04-02T06:21:49.296Z,82.10
2018-04-02T06:24:17.576Z,82.20
2018-04-02T06:26:48.860Z,81.10
2018-04-02T06:29:18.011Z,81.10
2018-04-02T06:31:46.294Z,81.10
2018-04-02T06:34:14.554Z,80.20
2018-04-02T06:36:43.039Z,80.60
2018-04-02T06:39:11.432Z,79.60
2018-04-02T06:41:39.674Z,78.40
2018-04-02T06:44:07.950Z,78.20
2018-04-02T06:46:37.359Z,77.30
2018-04-02T06:49:05.666Z,75.80
2018-04-02T06:51:33.949Z,74.20
2018-04-02T06:54:03.045Z,70.40
2018-04-02T06:56:32.111Z,67.00
2018-04-02T06:59:01.307Z,66.70
2018-04-02T07:01:29.575Z,63.60
2018-04-02T07:03:57.836Z,60.20
2018-04-02T07:06:26.104Z,57.30
2018-04-02T07:08:54.407Z,57.30
2018-04-02T07:11:22.672Z,56.40
2018-04-02T07:13:50.962Z,55.80
2018-04-02T07:16:19.239Z,56.40
2018-04-02T07:18:47.607Z,56.20
2018-04-02T07:21:15.889Z,57.00
2018-04-02T07:23:44.205Z,57.70
2018-04-02T07:26:13.288Z,61.50
2018-04-02T07:28:41.563Z,61.50
2018-04-02T07:31:09.782Z,62.20
2018-04-02T07:33:38.065Z,64.20
2018-04-02T07:36:06.338Z,65.40
2018-04-02T07:38:34.671Z,67.20
2018-04-02T07:41:02.922Z,68.00
2018-04-02T07:43:31.219Z,68.70
2018-04-02T07:45:59.478Z,69.90
2018-04-02T07:48:27.751Z,71.00
2018-04-02T07:50:56.038Z,72.10
2018-04-02T07:53:24.301Z,72.30
2018-04-02T07:55:52.557Z,74.10
2018-04-02T07:58:20.820Z,74.70
2018-04-02T08:00:49.066Z,74.20
2018-04-02T08:03:18.082Z,74.40
2018-04-02T08:05:46.354Z,74.40
2018-04-02T08:08:14.634Z,75.10
2018-04-02T08:10:42.893Z,75.00
2018-04-02T08:13:11.929Z,75.00
2018-04-02T08:15:40.234Z,75.10
2018-04-02T08:18:08.530Z,74.30
2018-04-02T08:20:36.762Z,73.60
2018-04-02T08:23:05.065Z,73.10
2018-04-02T08:25:33.319Z,72.30
2018-04-02T08:28:01.610Z,70.70
2018-04-02T08:30:29.950Z,70.80
2018-04-02T08:32:58.177Z,70.50
2018-04-02T08:35:27.247Z,67.90
2018-04-02T08:37:55.503Z,67.70
2018-04-02T08:40:25.434Z,66.50
2018-04-02T08:42:53.727Z,66.50
2018-04-02T08:45:21.964Z,62.10
2018-04-02T08:47:50.230Z,64.00
2018-04-02T08:50:18.552Z,63.20
2018-04-02T08:52:46.836Z,62.60
2018-04-02T08:55:15.851Z,59.80
2018-04-02T08:57:44.266Z,59.80
2018-04-02T09:00:12.530Z,58.40
2018-04-02T09:02:40.768Z,60.50
2018-04-02T09:05:09.044Z,60.50
2018-04-02T09:07:37.306Z,61.80
2018-04-02T09:10:05.542Z,63.30
2018-04-02T09:12:33.837Z,62.20
2018-04-02T09:15:02.129Z,62.40
2018-04-02T09:17:30.377Z,60.40
2018-04-02T09:19:58.657Z,59.10
2018-04-02T09:22:26.899Z,56.40
2018-04-02T09:24:55.170Z,58.30
2018-04-02T09:27:24.214Z,57.20
2018-04-02T09:29:52.487Z,57.20
2018-04-02T09:32:20.773Z,57.30
2018-04-02T09:34:49.053Z,56.20
2018-04-02T09:37:17.377Z,56.00
2018-04-02T09:39:46.361Z,56.70
2018-04-02T09:42:14.632Z,56.70
2018-04-02T09:44:43.656Z,59.10
2018-04-02T09:47:11.907Z,59.10
2018-04-02T09:49:40.156Z,56.80
2018-04-02T09:52:08.430Z,56.20
2018-04-02T09:54:36.688Z,55.30
2018-04-02T09:57:04.937Z,55.40
2018-04-02T09:59:33.239Z,57.60
2018-04-02T10:02:17.156Z,56.90
2018-04-02T10:04:45.499Z,56.80
2018-04-02T10:07:13.735Z,56.00
2018-04-02T10:09:41.999Z,56.10
2018-04-02T10:12:10.304Z,55.10
2018-04-02T10:14:38.577Z,56.20
2018-04-02T10:17:06.828Z,56.80
2018-04-02T10:19:35.098Z,56.60
2018-04-02T10:22:03.400Z,58.00
2018-04-02T10:24:31.674Z,57.80
2018-04-02T10:26:59.922Z,57.30
2018-04-02T10:29:28.301Z,58.00
2018-04-02T10:31:56.618Z,57.80
2018-04-02T10:34:24.918Z,56.80
2018-04-02T10:36:53.948Z,55.80
2018-04-02T10:39:22.190Z,55.80
2018-04-02T10:41:50.543Z,54.40
2018-04-02T10:44:18.782Z,55.80
2018-04-02T10:46:47.046Z,56.50
2018-04-02T10:49:15.312Z,54.80
2018-04-02T10:51:43.564Z,53.70
2018-04-02T10:54:12.582Z,54.90
2018-04-02T10:56:40.841Z,54.90
2018-04-02T10:59:09.121Z,55.90
2018-04-02T11:01:37.402Z,54.70
2018-04-02T11:04:05.750Z,53.90
2018-04-02T11:06:34.045Z,53.80
2018-04-02T11:09:03.082Z,50.60
2018-04-02T11:11:31.421Z,50.60
2018-04-02T11:14:00.431Z,51.70
2018-04-02T11:16:28.705Z,51.70
2018-04-02T11:18:56.953Z,53.00
2018-04-02T11:21:25.984Z,50.80
2018-04-02T11:23:54.263Z,50.80
2018-04-02T11:26:22.547Z,50.50
2018-04-02T11:28:50.862Z,50.40
2018-04-02T11:31:19.106Z,52.70
2018-04-02T11:33:47.391Z,52.10
2018-04-02T11:36:18.113Z,48.30
2018-04-02T11:38:46.378Z,48.30
2018-04-02T11:41:14.652Z,48.70
2018-04-02T11:43:42.999Z,48.80
2018-04-02T11:46:12.040Z,46.10
2018-04-02T11:48:41.078Z,46.00
2018-04-02T11:51:09.346Z,43.60
2018-04-02T11:53:39.348Z,46.40
2018-04-02T11:56:07.679Z,46.40
2018-04-02T11:58:35.994Z,46.00
2018-04-02T12:01:04.415Z,46.50
2018-04-02T12:03:32.751Z,44.30
2018-04-02T12:06:00.996Z,44.40
2018-04-02T12:08:29.264Z,45.00
2018-04-02T12:10:57.623Z,43.60
2018-04-02T12:13:25.869Z,44.00
2018-04-02T12:15:54.210Z,45.30
2018-04-02T12:18:22.439Z,42.80
2018-04-02T12:20:52.398Z,38.30
2018-04-02T12:23:20.674Z,38.40
2018-04-02T12:25:48.934Z,40.60
2018-04-02T12:28:17.218Z,40.50
2018-04-02T12:30:45.490Z,36.40
2018-04-02T12:33:13.780Z,36.30
2018-04-02T12:35:42.111Z,38.10
2018-04-02T12:38:11.154Z,39.50
2018-04-02T12:40:39.404Z,39.40
2018-04-02T12:43:07.684Z,39.40
2018-04-02T12:45:36.858Z,41.00
2018-04-02T12:48:06.671Z,40.60
2018-04-02T12:50:35.682Z,40.40
2018-04-02T12:53:04.025Z,40.40
2018-04-02T12:55:33.097Z,40.70
2018-04-02T12:58:01.344Z,40.70
2018-04-02T13:00:29.627Z,41.40
2018-04-02T13:02:58.285Z,41.80
2018-04-02T13:05:26.533Z,41.90
2018-04-02T13:07:55.575Z,42.40
2018-04-02T13:10:23.865Z,41.70
2018-04-02T13:12:52.230Z,44.30
2018-04-02T13:15:20.472Z,43.30
2018-04-02T13:17:48.773Z,41.40
2018-04-02T13:20:17.085Z,42.90
2018-04-02T13:22:46.264Z,42.90
2018-04-02T13:25:14.602Z,42.00
2018-04-02T13:27:43.697Z,42.40
2018-04-02T13:30:12.769Z,42.90
2018-04-02T13:32:41.962Z,41.30
2018-04-02T13:35:12.623Z,41.70
2018-04-02T13:37:40.931Z,41.70
2018-04-02T13:40:10.060Z,44.60
2018-04-02T13:42:38.407Z,43.40
2018-04-02T13:45:06.766Z,42.50
2018-04-02T13:47:35.091Z,41.70
2018-04-02T13:50:04.329Z,42.10
2018-04-02T13:52:33.905Z,40.40
2018-04-02T13:55:03.715Z,42.00
2018-04-02T13:57:32.805Z,42.50
2018-04-02T14:00:01.138Z,42.50
2018-04-02T14:02:30.405Z,41.90
2018-04-02T14:04:58.742Z,40.40
2018-04-02T14:07:27.052Z,41.40
2018-04-02T14:09:56.953Z,41.50
2018-04-02T14:12:25.308Z,40.90
2018-04-02T14:14:53.682Z,40.90
2018-04-02T14:17:21.955Z,41.20
2018-04-02T14:19:51.478Z,40.60
2018-04-02T14:22:19.835Z,41.50
2018-04-02T14:24:48.081Z,41.90
2018-04-02T14:27:17.510Z,41.60
2018-04-02T14:29:45.757Z,41.30
2018-04-02T14:32:14.238Z,41.80
2018-04-02T14:34:42.584Z,41.20
2018-04-02T14:37:10.870Z,42.50
2018-04-02T14:39:39.135Z,43.40
2018-04-02T14:42:07.411Z,42.30
2018-04-02T14:44:35.750Z,42.70
2018-04-02T14:47:04.033Z,42.50
2018-04-02T14:49:32.426Z,43.40
2018-04-02T14:52:01.853Z,43.80
2018-04-02T14:54:30.157Z,44.10
2018-04-02T14:56:58.432Z,43.50
2018-04-02T14:59:26.727Z,44.40
2018-04-02T15:01:55.044Z,44.10
2018-04-02T15:04:23.353Z,44.40
2018-04-02T15:06:52.411Z,44.00
2018-04-02T15:09:20.707Z,44.00
2018-04-02T15:11:49.793Z,44.70
2018-04-02T15:14:18.219Z,44.60
2018-04-02T15:16:47.789Z,46.10
2018-04-02T15:19:16.876Z,44.60
2018-04-02T15:21:45.235Z,44.70
2018-04-02T15:24:14.313Z,45.60
2018-04-02T15:26:42.600Z,45.60
2018-04-02T15:29:11.016Z,46.40
2018-04-02T15:31:40.096Z,46.10
2018-04-02T15:34:08.376Z,46.20
2018-04-02T15:36:36.661Z,44.80
2018-04-02T15:39:05.747Z,47.50
2018-04-02T15:41:34.039Z,47.50
2018-04-02T15:44:03.131Z,48.20
2018-04-02T15:46:32.232Z,48.30
2018-04-02T15:49:01.324Z,48.20
2018-04-02T15:51:30.438Z,47.90
2018-04-02T15:53:59.613Z,48.50
2018-04-02T15:56:28.680Z,48.30
2018-04-02T15:58:56.981Z,48.30
2018-04-02T16:01:26.071Z,49.90
2018-04-02T16:03:54.384Z,49.80
2018-04-02T16:06:22.635Z,49.20
2018-04-02T16:08:51.558Z,49.10
2018-04-02T16:11:20.006Z,50.00
2018-04-02T16:13:48.234Z,49.90
2018-04-02T16:16:16.538Z,49.00
2018-04-02T16:18:44.764Z,47.90
2018-04-02T16:21:13.062Z,48.50
2018-04-02T16:23:41.338Z,49.10
2018-04-02T16:26:10.559Z,48.70
2018-04-02T16:31:14.360Z,51.70
2018-04-02T16:33:42.645Z,51.60
2018-04-02T16:36:11.798Z,51.10
2018-04-02T16:38:40.072Z,48.60
2018-04-02T16:41:08.468Z,50.40
2018-04-02T16:43:36.758Z,50.40
2018-04-02T16:46:05.024Z,49.50
2018-04-02T16:48:33.313Z,51.00
2018-04-02T16:51:01.593Z,49.70
2018-04-02T16:53:29.857Z,49.80
2018-04-02T16:55:58.142Z,50.70
2018-04-02T16:58:26.423Z,50.40
2018-04-02T17:00:54.699Z,51.20
2018-04-02T17:03:23.005Z,51.40
2018-04-02T17:05:53.542Z,50.50
2018-04-02T17:08:21.883Z,50.50
2018-04-02T17:10:50.184Z,51.30
2018-04-02T17:13:19.646Z,52.30
2018-04-02T17:15:47.899Z,52.80
2018-04-02T17:18:24.858Z,52.20
2018-04-02T17:20:53.160Z,51.50
2018-04-02T17:23:22.293Z,52.20
2018-04-02T17:25:51.719Z,52.40
2018-04-02T17:28:19.989Z,52.30
2018-04-02T17:30:48.262Z,52.00
2018-04-02T17:33:16.562Z,52.50
2018-04-02T17:35:45.662Z,53.10
2018-04-02T17:38:16.008Z,53.40
2018-04-02T17:40:44.355Z,53.30
2018-04-02T17:43:13.795Z,54.30
2018-04-02T17:45:42.922Z,54.30
2018-04-02T17:48:12.078Z,54.40
2018-04-02T17:50:40.400Z,55.70
2018-04-02T17:53:08.820Z,55.30
2018-04-02T17:55:37.089Z,54.80
2018-04-02T17:58:07.025Z,57.10
2018-04-02T18:00:35.300Z,57.10
2018-04-02T18:03:03.620Z,56.70
2018-04-02T18:05:32.152Z,57.20
2018-04-02T18:08:02.879Z,58.80
2018-04-02T18:10:32.692Z,58.80
2018-04-02T18:13:01.715Z,60.20
2018-04-02T18:15:30.844Z,60.10
2018-04-02T18:18:00.372Z,60.80
2018-04-02T18:20:29.918Z,62.90
2018-04-02T18:22:58.195Z,63.30
2018-04-02T18:25:26.534Z,63.10
2018-04-02T18:27:54.830Z,64.00
2018-04-02T18:30:24.370Z,65.70
2018-04-02T18:32:52.674Z,68.70
2018-04-02T18:35:21.255Z,67.10
2018-04-02T18:37:49.523Z,67.90
2018-04-02T18:40:18.187Z,68.50
2018-04-02T18:42:46.492Z,68.90
2018-04-02T18:45:14.760Z,70.90
2018-04-02T18:47:44.649Z,70.10
2018-04-02T18:50:14.161Z,70.50
2018-04-02T18:52:42.446Z,71.30
2018-04-02T18:55:11.962Z,71.70
2018-04-02T18:57:40.287Z,71.80
2018-04-02T19:00:10.169Z,73.60
2018-04-02T19:02:39.561Z,73.80
2018-04-02T19:05:07.909Z,73.80
2018-04-02T19:07:37.040Z,73.50
2018-04-02T19:10:05.317Z,75.00
2018-04-02T19:12:33.591Z,74.90
2018-04-02T19:15:01.895Z,76.30
2018-04-02T19:17:30.958Z,77.50
2018-04-02T19:20:00.030Z,77.50
2018-04-02T19:22:28.336Z,76.70
2018-04-02T19:24:56.616Z,77.20
2018-04-02T19:27:25.050Z,77.00
2018-04-02T19:29:53.316Z,78.00
2018-04-02T19:32:21.588Z,77.40
2018-04-02T19:34:49.904Z,78.30
2018-04-02T19:37:18.192Z,78.30
2018-04-02T19:39:46.568Z,77.50
2018-04-02T19:42:15.265Z,76.90
2018-04-02T19:44:43.607Z,77.20
2018-04-02T19:47:11.970Z,77.60
2018-04-02T19:49:40.258Z,76.70
2018-04-02T19:52:08.577Z,77.20
2018-04-02T19:54:36.910Z,76.80
2018-04-02T19:57:05.226Z,76.90
2018-04-02T19:59:33.520Z,76.70
2018-04-02T20:02:02.567Z,76.50
2018-04-02T20:04:30.882Z,76.40
2018-04-02T20:07:00.691Z,76.50
2018-04-02T20:09:29.896Z,76.50
2018-04-02T20:11:58.954Z,76.00
2018-04-02T20:14:27.252Z,76.00
2018-04-02T20:16:56.264Z,75.60
2018-04-02T20:19:25.342Z,75.60
2018-04-02T20:21:54.413Z,76.30
2018-04-02T20:24:22.861Z,77.00
2018-04-02T20:26:51.942Z,75.90
2018-04-02T20:29:22.244Z,76.00
2018-04-02T20:31:50.511Z,75.90
2018-04-02T20:34:20.083Z,76.20
2018-04-02T20:36:48.375Z,76.20
2018-04-02T20:39:16.642Z,76.60
2018-04-02T20:41:44.908Z,76.90
2018-04-02T20:44:13.240Z,76.40
2018-04-02T20:46:42.423Z,76.60
2018-04-02T20:49:10.694Z,76.50
2018-04-02T20:51:38.975Z,76.30
2018-04-02T20:54:08.418Z,76.40
2018-04-02T20:56:36.995Z,76.70
2018-04-02T20:59:05.278Z,76.20
2018-04-02T21:01:33.584Z,76.10
2018-04-02T21:04:01.867Z,76.20
2018-04-02T21:06:30.150Z,75.90
2018-04-02T21:08:58.441Z,75.60
2018-04-02T21:11:27.492Z,75.60
2018-04-02T21:13:55.777Z,76.00
2018-04-02T21:16:24.072Z,76.20
2018-04-02T21:18:52.391Z,76.70
2018-04-02T21:21:21.456Z,76.00
2018-04-02T21:23:49.708Z,76.00
2018-04-02T21:26:20.916Z,75.20
2018-04-02T21:28:49.915Z,74.90
2018-04-02T21:31:18.248Z,74.90
2018-04-02T21:33:48.071Z,74.60
2018-04-02T21:36:17.129Z,74.90
2018-04-02T21:38:45.375Z,74.80
2018-04-02T21:41:14.811Z,75.40
2018-04-02T21:43:43.119Z,75.40
2018-04-02T21:46:12.153Z,76.10
2018-04-02T21:48:40.452Z,75.50
2018-04-02T21:51:08.733Z,75.30
2018-04-02T21:53:37.032Z,75.40
2018-04-02T21:56:06.560Z,75.50
2018-04-02T21:58:35.232Z,75.80
2018-04-02T22:01:04.267Z,75.80
2018-04-02T22:03:32.574Z,75.80
2018-04-02T22:06:00.847Z,75.70
2018-04-02T22:08:29.101Z,76.20
2018-04-02T22:10:57.369Z,77.10
2018-04-02T22:13:25.633Z,76.50
2018-04-02T22:15:53.958Z,76.70
2018-04-02T22:18:22.242Z,76.90
2018-04-02T22:20:50.544Z,77.20
2018-04-02T22:23:18.832Z,76.70
2018-04-02T22:25:47.849Z,76.90
2018-04-02T22:28:16.126Z,76.90
2018-04-02T22:30:44.431Z,77.20
2018-04-02T22:33:12.716Z,77.50
2018-04-02T22:35:40.996Z,77.60
2018-04-02T22:38:09.257Z,77.60
2018-04-02T22:40:37.504Z,77.50
2018-04-02T22:43:06.262Z,77.20
2018-04-02T22:45:35.407Z,77.30
2018-04-02T22:48:03.680Z,77.20
2018-04-02T22:50:34.040Z,77.00
2018-04-02T22:53:02.404Z,77.40
2018-04-02T22:55:30.709Z,76.70
2018-04-02T22:57:59.746Z,77.40
2018-04-02T23:00:28.013Z,77.40
2018-04-02T23:02:56.298Z,77.60
2018-04-02T23:05:24.604Z,78.20
2018-04-02T23:07:55.334Z,78.60
2018-04-02T23:10:24.767Z,78.50
2018-04-02T23:12:53.052Z,78.10
2018-04-02T23:15:22.107Z,78.10
2018-04-02T23:17:51.306Z,78.10
2018-04-02T23:20:20.464Z,79.10
2018-04-02T23:22:52.755Z,78.80
2018-04-02T23:25:21.056Z,79.10
2018-04-02T23:27:49.327Z,79.00
2018-04-02T23:30:17.555Z,79.40
2018-04-02T23:32:46.601Z,81.00
2018-04-02T23:35:14.877Z,80.60
2018-04-02T23:37:43.134Z,80.90
2018-04-02T23:40:11.508Z,81.70
2018-04-02T23:42:39.777Z,82.10
2018-04-02T23:45:08.185Z,83.30
2018-04-02T23:47:37.955Z,83.20
2018-04-02T23:50:06.251Z,83.30
2018-04-02T23:52:34.550Z,83.50
2018-04-02T23:55:03.029Z,84.00
2018-04-02T23:57:31.311Z,84.70
